Time;durP1;ratioP1;P1;durP2;ratioP2;P2;SDS_P1;SDS_P2;PMS_P1;PMS_P2;Temp;Humidity;BMP_temperature;BMP_pressure;BME280_temperature;BME280_humidity;BME280_pressure;Samples;Min_cycle;Max_cycle;Signal;HPM_P1;HPM_P2
2022/03/04 00:01:09;;;;;;;8.02;5.45;;;;;;;;;;4981045;28;20497;-57
2022/03/04 00:03:34;;;;;;;8.97;5.93;;;;;;;;;;4980847;28;20037;-57
2022/03/04 00:05:59;;;;;;;7.53;5.27;;;;;;;;;;4980702;28;20022;-57
2022/03/04 00:08:24;;;;;;;9.02;5.60;;;;;;;;;;4981065;28;20053;-57
2022/03/04 00:10:49;;;;;;;7.90;5.63;;;;;;;;;;4981150;28;20034;-55
2022/03/04 00:13:15;;;;;;;9.85;5.68;;;;;;;;;;4980604;28;20274;-58
2022/03/04 00:15:40;;;;;;;8.73;5.73;;;;;;;;;;4980361;28;20181;-57
2022/03/04 00:18:05;;;;;;;8.53;5.70;;;;;;;;;;4981325;28;20113;-58
2022/03/04 00:20:31;;;;;;;8.87;6.33;;;;;;;;;;4984801;28;20278;-58
2022/03/04 00:22:56;;;;;;;9.70;6.32;;;;;;;;;;4997831;28;20272;-58
2022/03/04 00:25:21;;;;;;;8.15;5.65;;;;;;;;;;4986191;28;20567;-58
2022/03/04 00:27:46;;;;;;;8.90;6.13;;;;;;;;;;4984461;28;20026;-57
2022/03/04 00:30:12;;;;;;;8.50;6.37;;;;;;;;;;4984594;28;20278;-58
2022/03/04 00:32:37;;;;;;;8.52;5.55;;;;;;;;;;4983629;28;20800;-58
2022/03/04 00:35:05;;;;;;;8.35;5.68;;;;;;;;;;4984480;28;20822;-57
2022/03/04 00:37:31;;;;;;;7.93;5.40;;;;;;;;;;4984348;28;20030;-58
2022/03/04 00:39:56;;;;;;;7.40;5.57;;;;;;;;;;4983998;28;20038;-58
2022/03/04 00:42:21;;;;;;;8.60;5.80;;;;;;;;;;4983687;28;20893;-58
2022/03/04 00:44:46;;;;;;;8.68;6.20;;;;;;;;;;4983758;28;20891;-59
2022/03/04 00:47:11;;;;;;;8.37;5.80;;;;;;;;;;4984233;28;20025;-58
2022/03/04 00:49:37;;;;;;;8.30;5.93;;;;;;;;;;4984213;28;20022;-58
2022/03/04 00:52:02;;;;;;;9.03;5.73;;;;;;;;;;4990606;28;20029;-58
2022/03/04 00:54:27;;;;;;;9.23;5.80;;;;;;;;;;5002918;28;20046;-57
2022/03/04 00:56:52;;;;;;;9.47;6.00;;;;;;;;;;5003627;28;20315;-58
2022/03/04 00:59:18;;;;;;;8.60;5.90;;;;;;;;;;4986793;28;20310;-58
2022/03/04 01:01:43;;;;;;;8.60;6.20;;;;;;;;;;4983935;28;20268;-58
2022/03/04 01:04:08;;;;;;;9.90;6.30;;;;;;;;;;4983529;28;20022;-57
2022/03/04 01:06:34;;;;;;;9.35;6.57;;;;;;;;;;4983850;28;20345;-59
2022/03/04 01:08:59;;;;;;;8.45;5.60;;;;;;;;;;4983697;28;20081;-60
2022/03/04 01:11:24;;;;;;;8.00;6.32;;;;;;;;;;4983667;28;20120;-59
2022/03/04 01:13:50;;;;;;;8.20;5.90;;;;;;;;;;4983461;28;21044;-57
2022/03/04 01:16:15;;;;;;;8.60;6.33;;;;;;;;;;4983400;28;20371;-58
2022/03/04 01:18:40;;;;;;;7.55;5.75;;;;;;;;;;4983782;28;20278;-55
2022/03/04 01:21:05;;;;;;;9.02;6.15;;;;;;;;;;4983413;28;20063;-55
2022/03/04 01:23:31;;;;;;;8.60;6.20;;;;;;;;;;4982845;28;20023;-57
2022/03/04 01:25:56;;;;;;;8.77;6.20;;;;;;;;;;4982803;28;20316;-55
2022/03/04 01:28:22;;;;;;;9.65;6.45;;;;;;;;;;4983218;28;20278;-56
2022/03/04 01:30:47;;;;;;;10.57;6.75;;;;;;;;;;4982687;28;20065;-57
2022/03/04 01:33:13;;;;;;;9.38;6.35;;;;;;;;;;4983696;28;20089;-57
2022/03/04 01:35:38;;;;;;;8.73;6.43;;;;;;;;;;4966393;28;20116;-57
2022/03/04 01:38:03;;;;;;;8.97;6.20;;;;;;;;;;4988051;28;20320;-54
2022/03/04 01:40:28;;;;;;;8.98;6.57;;;;;;;;;;4987953;28;20726;-53
2022/03/04 01:42:54;;;;;;;9.53;6.40;;;;;;;;;;4985184;28;20093;-56
2022/03/04 01:45:20;;;;;;;10.67;6.13;;;;;;;;;;4983136;28;20052;-56
2022/03/04 01:47:45;;;;;;;10.80;6.55;;;;;;;;;;4982404;28;20305;-57
2022/03/04 01:50:10;;;;;;;7.87;5.70;;;;;;;;;;4982619;28;20050;-56
2022/03/04 01:52:36;;;;;;;8.70;6.22;;;;;;;;;;4982709;28;20108;-57
2022/03/04 01:55:01;;;;;;;8.82;6.15;;;;;;;;;;4982166;28;20409;-57
2022/03/04 01:57:26;;;;;;;9.53;6.30;;;;;;;;;;4982469;28;20056;-57
2022/03/04 01:59:51;;;;;;;9.67;6.60;;;;;;;;;;4982506;28;20045;-56
2022/03/04 02:02:17;;;;;;;10.23;6.63;;;;;;;;;;4990486;28;20343;-56
2022/03/04 02:04:42;;;;;;;10.87;7.13;;;;;;;;;;4990172;28;20027;-57
2022/03/04 02:07:07;;;;;;;10.18;6.63;;;;;;;;;;4980838;28;20274;-55
2022/03/04 02:09:33;;;;;;;9.00;6.43;;;;;;;;;;4982194;28;20032;-57
2022/03/04 02:11:58;;;;;;;9.60;6.30;;;;;;;;;;4981735;28;20811;-56
2022/03/04 02:14:23;;;;;;;9.13;6.20;;;;;;;;;;4982199;28;20555;-56
2022/03/04 02:16:48;;;;;;;10.20;6.47;;;;;;;;;;4981482;28;20058;-56
2022/03/04 02:19:14;;;;;;;9.07;6.37;;;;;;;;;;4982119;28;20026;-60
2022/03/04 02:21:47;;;;;;;10.88;7.28;;;;;;;;;;4981682;28;20019;-56
2022/03/04 02:24:12;;;;;;;9.02;6.45;;;;;;;;;;4980490;28;20505;-56
2022/03/04 02:26:37;;;;;;;9.02;6.43;;;;;;;;;;4981474;28;20018;-57
2022/03/04 02:29:03;;;;;;;9.37;6.47;;;;;;;;;;4982260;28;20117;-56
2022/03/04 02:31:28;;;;;;;11.57;6.90;;;;;;;;;;4981898;28;20027;-57
2022/03/04 02:33:53;;;;;;;10.40;6.40;;;;;;;;;;4982772;28;20035;-56
2022/03/04 02:36:18;;;;;;;9.80;6.70;;;;;;;;;;4981621;28;20030;-57
2022/03/04 02:38:44;;;;;;;10.32;6.68;;;;;;;;;;4982071;28;20493;-56
2022/03/04 02:41:09;;;;;;;10.07;7.05;;;;;;;;;;4981344;28;20022;-54
2022/03/04 02:43:34;;;;;;;9.48;7.18;;;;;;;;;;4982013;28;20485;-57
2022/03/04 02:46:00;;;;;;;10.05;6.75;;;;;;;;;;4981248;28;20097;-57
2022/03/04 02:48:25;;;;;;;9.80;7.18;;;;;;;;;;4982047;28;20030;-55
2022/03/04 02:50:50;;;;;;;10.52;6.78;;;;;;;;;;4981927;28;20022;-55
2022/03/04 02:53:15;;;;;;;10.17;6.97;;;;;;;;;;4982001;28;20085;-55
2022/03/04 02:55:41;;;;;;;10.68;7.00;;;;;;;;;;4980347;28;20517;-56
2022/03/04 02:58:06;;;;;;;10.52;7.07;;;;;;;;;;4981714;28;20551;-57
2022/03/04 03:00:31;;;;;;;10.07;6.90;;;;;;;;;;4980405;28;20544;-56
2022/03/04 03:02:57;;;;;;;10.80;6.95;;;;;;;;;;4981913;28;20327;-56
2022/03/04 03:05:22;;;;;;;10.98;7.10;;;;;;;;;;4981220;28;20049;-56
2022/03/04 03:07:47;;;;;;;10.35;7.30;;;;;;;;;;4981812;28;20030;-55
2022/03/04 03:10:12;;;;;;;10.40;7.00;;;;;;;;;;4981942;28;20104;-56
2022/03/04 03:12:38;;;;;;;10.77;6.95;;;;;;;;;;4981496;28;20270;-56
2022/03/04 03:15:03;;;;;;;10.00;7.13;;;;;;;;;;4980607;28;20422;-56
2022/03/04 03:17:29;;;;;;;10.10;7.25;;;;;;;;;;4981130;28;20487;-55
2022/03/04 03:19:54;;;;;;;9.38;6.95;;;;;;;;;;4981692;28;20054;-56
2022/03/04 03:22:19;;;;;;;9.83;6.90;;;;;;;;;;4981474;28;20032;-56
2022/03/04 03:24:45;;;;;;;10.52;7.63;;;;;;;;;;4981176;28;20369;-57
2022/03/04 03:27:10;;;;;;;11.10;7.50;;;;;;;;;;4981128;28;20463;-55
2022/03/04 03:29:35;;;;;;;12.23;7.68;;;;;;;;;;4981403;28;20490;-57
2022/03/04 03:32:00;;;;;;;11.23;7.60;;;;;;;;;;4981612;28;20019;-57
2022/03/04 03:34:26;;;;;;;9.80;7.27;;;;;;;;;;4981685;28;20854;-56
2022/03/04 03:36:51;;;;;;;10.97;7.33;;;;;;;;;;4981245;28;20026;-56
2022/03/04 03:39:16;;;;;;;11.10;8.00;;;;;;;;;;4981374;28;20508;-56
2022/03/04 03:41:41;;;;;;;10.57;7.27;;;;;;;;;;4981325;28;20261;-57
2022/03/04 03:44:07;;;;;;;11.47;7.43;;;;;;;;;;4979974;28;20049;-54
2022/03/04 03:46:32;;;;;;;11.43;7.97;;;;;;;;;;4981078;28;20282;-57
2022/03/04 03:48:57;;;;;;;11.43;7.33;;;;;;;;;;4981264;28;20273;-56
2022/03/04 03:51:23;;;;;;;11.05;7.97;;;;;;;;;;4981429;28;20045;-56
2022/03/04 03:53:48;;;;;;;12.18;7.95;;;;;;;;;;4983985;28;20037;-56
2022/03/04 03:56:13;;;;;;;11.33;8.20;;;;;;;;;;4985239;28;20069;-56
2022/03/04 03:58:38;;;;;;;10.90;7.40;;;;;;;;;;4985114;28;20038;-56
2022/03/04 04:01:04;;;;;;;12.47;8.10;;;;;;;;;;4984603;28;20034;-56
2022/03/04 04:03:29;;;;;;;10.27;7.72;;;;;;;;;;4984506;28;20293;-55
2022/03/04 04:05:54;;;;;;;12.03;7.60;;;;;;;;;;4984808;28;20022;-57
2022/03/04 04:08:20;;;;;;;11.77;8.07;;;;;;;;;;4984913;28;20297;-56
2022/03/04 04:10:45;;;;;;;11.77;8.43;;;;;;;;;;4985356;28;20317;-57
2022/03/04 04:13:11;;;;;;;13.73;8.03;;;;;;;;;;4984537;28;20316;-56
2022/03/04 04:15:36;;;;;;;12.93;8.50;;;;;;;;;;4984082;28;20309;-57
2022/03/04 04:18:01;;;;;;;10.98;7.90;;;;;;;;;;4985096;28;20017;-56
2022/03/04 04:20:27;;;;;;;13.33;8.70;;;;;;;;;;4984907;28;20511;-56
2022/03/04 04:22:52;;;;;;;11.85;7.70;;;;;;;;;;4985334;28;20343;-58
2022/03/04 04:25:17;;;;;;;13.57;8.50;;;;;;;;;;4984835;28;20409;-58
2022/03/04 04:27:42;;;;;;;12.10;8.20;;;;;;;;;;4984404;28;20492;-56
2022/03/04 04:30:08;;;;;;;11.97;7.80;;;;;;;;;;4983115;28;20033;-56
2022/03/04 04:32:33;;;;;;;13.52;8.60;;;;;;;;;;4984386;28;20026;-58
2022/03/04 04:34:58;;;;;;;12.00;8.27;;;;;;;;;;4984323;28;20049;-56
2022/03/04 04:37:23;;;;;;;13.07;8.90;;;;;;;;;;4984239;28;20838;-54
2022/03/04 04:39:49;;;;;;;12.67;8.37;;;;;;;;;;4984461;28;20521;-57
2022/03/04 04:42:14;;;;;;;12.60;7.90;;;;;;;;;;4984229;28;20532;-57
2022/03/04 04:44:39;;;;;;;12.47;8.00;;;;;;;;;;4984022;28;20389;-56
2022/03/04 04:47:06;;;;;;;13.43;8.73;;;;;;;;;;4983949;28;20279;-55
2022/03/04 04:49:35;;;;;;;14.52;8.80;;;;;;;;;;5002057;28;20316;-55
2022/03/04 04:52:01;;;;;;;12.57;8.63;;;;;;;;;;5004069;28;20021;-53
2022/03/04 04:54:26;;;;;;;12.50;8.25;;;;;;;;;;5003214;28;20045;-54
2022/03/04 04:56:51;;;;;;;11.90;7.80;;;;;;;;;;5002780;28;20492;-57
2022/03/04 04:59:16;;;;;;;13.10;8.63;;;;;;;;;;4988112;28;20517;-57
2022/03/04 05:01:43;;;;;;;12.63;8.57;;;;;;;;;;4983979;28;20617;-55
2022/03/04 05:04:09;;;;;;;13.32;8.75;;;;;;;;;;4984251;28;20277;-54
2022/03/04 05:06:34;;;;;;;12.60;8.77;;;;;;;;;;4988091;28;20465;-54
2022/03/04 05:08:59;;;;;;;12.57;8.25;;;;;;;;;;4989375;28;20057;-54
2022/03/04 05:11:24;;;;;;;13.97;9.17;;;;;;;;;;4987493;28;20026;-57
2022/03/04 05:13:50;;;;;;;12.50;8.37;;;;;;;;;;4984121;28;20088;-56
2022/03/04 05:16:15;;;;;;;13.70;9.18;;;;;;;;;;4983193;28;20058;-56
2022/03/04 05:18:41;;;;;;;12.18;8.35;;;;;;;;;;4983034;28;20117;-55
2022/03/04 05:21:06;;;;;;;12.40;9.38;;;;;;;;;;4983655;28;20370;-57
2022/03/04 05:26:15;;;;;;;12.07;8.57;;;;;;;;;;4983278;28;20737;-59
2022/03/04 05:28:40;;;;;;;13.43;8.83;;;;;;;;;;4982920;28;20018;-56
2022/03/04 05:31:05;;;;;;;13.20;8.57;;;;;;;;;;4983297;28;20066;-57
2022/03/04 05:33:31;;;;;;;14.40;9.27;;;;;;;;;;4983207;28;20897;-58
2022/03/04 05:35:56;;;;;;;13.20;8.83;;;;;;;;;;4983127;28;20040;-57
2022/03/04 05:38:21;;;;;;;15.27;8.77;;;;;;;;;;4982843;28;20394;-56
2022/03/04 05:40:46;;;;;;;14.53;9.43;;;;;;;;;;4971570;28;20026;-58
2022/03/04 05:43:12;;;;;;;15.80;9.73;;;;;;;;;;4977802;28;20026;-56
2022/03/04 05:45:37;;;;;;;12.50;8.80;;;;;;;;;;4982731;28;20072;-57
2022/03/04 05:48:02;;;;;;;14.13;9.63;;;;;;;;;;4982980;28;20022;-57
2022/03/04 05:50:27;;;;;;;14.50;9.57;;;;;;;;;;4982882;28;20361;-57
2022/03/04 05:52:53;;;;;;;12.83;9.33;;;;;;;;;;4983270;28;20121;-57
2022/03/04 05:55:18;;;;;;;14.23;9.70;;;;;;;;;;4982611;28;20030;-56
2022/03/04 05:57:43;;;;;;;12.63;8.73;;;;;;;;;;4982188;28;20270;-56
2022/03/04 06:00:09;;;;;;;13.37;9.20;;;;;;;;;;4982781;28;20095;-56
2022/03/04 06:02:34;;;;;;;12.07;8.60;;;;;;;;;;4982768;28;20471;-56
2022/03/04 06:04:59;;;;;;;12.77;9.10;;;;;;;;;;4980848;28;20076;-55
2022/03/04 06:07:24;;;;;;;13.77;9.25;;;;;;;;;;4981739;28;20315;-55
2022/03/04 06:09:50;;;;;;;13.48;9.77;;;;;;;;;;4981480;28;20031;-55
2022/03/04 06:12:15;;;;;;;13.53;9.20;;;;;;;;;;4981406;28;20539;-55
2022/03/04 06:14:40;;;;;;;14.13;9.20;;;;;;;;;;4982599;28;20473;-55
2022/03/04 06:17:05;;;;;;;13.98;9.40;;;;;;;;;;4981348;28;20768;-54
2022/03/04 06:19:31;;;;;;;13.73;9.35;;;;;;;;;;4981421;28;20038;-57
2022/03/04 06:21:56;;;;;;;14.13;9.80;;;;;;;;;;4982321;28;20029;-56
2022/03/04 06:24:22;;;;;;;13.03;9.20;;;;;;;;;;4982191;28;20029;-55
2022/03/04 06:26:47;;;;;;;12.63;9.10;;;;;;;;;;4981280;28;20018;-54
2022/03/04 06:29:12;;;;;;;14.40;9.50;;;;;;;;;;4982114;28;20042;-55
2022/03/04 06:31:37;;;;;;;11.80;8.60;;;;;;;;;;4981779;28;20274;-55
2022/03/04 06:34:02;;;;;;;13.63;8.83;;;;;;;;;;4982312;28;20037;-56
2022/03/04 06:36:28;;;;;;;12.97;9.37;;;;;;;;;;4982188;28;20034;-53
2022/03/04 06:38:53;;;;;;;11.80;8.50;;;;;;;;;;4982043;28;20315;-56
2022/03/04 06:41:18;;;;;;;12.73;8.90;;;;;;;;;;4981600;28;20406;-55
2022/03/04 06:43:44;;;;;;;14.90;9.32;;;;;;;;;;4981475;28;20018;-55
2022/03/04 06:46:09;;;;;;;13.63;9.27;;;;;;;;;;4981696;28;20033;-56
2022/03/04 06:48:35;;;;;;;15.00;10.10;;;;;;;;;;4980438;28;20038;-54
2022/03/04 06:51:00;;;;;;;16.73;9.13;;;;;;;;;;4993710;28;20112;-53
2022/03/04 06:53:25;;;;;;;13.77;9.23;;;;;;;;;;5001436;28;20685;-55
2022/03/04 06:55:50;;;;;;;13.43;8.50;;;;;;;;;;5001717;28;20025;-57
2022/03/04 06:58:16;;;;;;;14.87;9.60;;;;;;;;;;4994125;28;20081;-56
2022/03/04 07:00:41;;;;;;;13.82;9.27;;;;;;;;;;4981946;28;20582;-56
2022/03/04 07:03:07;;;;;;;12.88;8.88;;;;;;;;;;4981689;28;20332;-56
2022/03/04 07:05:32;;;;;;;14.32;8.93;;;;;;;;;;4981182;28;20395;-56
2022/03/04 07:07:57;;;;;;;13.57;9.13;;;;;;;;;;4982116;28;20391;-56
2022/03/04 07:10:22;;;;;;;12.73;8.93;;;;;;;;;;4981518;28;20269;-56
2022/03/04 07:12:48;;;;;;;15.17;9.77;;;;;;;;;;4981660;28;20775;-56
2022/03/04 07:15:13;;;;;;;12.32;9.00;;;;;;;;;;4981285;28;20359;-57
2022/03/04 07:17:38;;;;;;;14.27;9.25;;;;;;;;;;4982386;28;20066;-60
2022/03/04 07:20:04;;;;;;;12.90;9.17;;;;;;;;;;4982619;28;20588;-57
2022/03/04 07:22:29;;;;;;;12.95;9.07;;;;;;;;;;4981755;28;20324;-56
2022/03/04 07:24:54;;;;;;;17.57;9.77;;;;;;;;;;4981199;28;20168;-61
2022/03/04 07:27:20;;;;;;;13.07;9.13;;;;;;;;;;4981155;28;20802;-56
2022/03/04 07:29:45;;;;;;;12.97;9.57;;;;;;;;;;4982529;28;20289;-56
2022/03/04 07:32:10;;;;;;;13.37;9.17;;;;;;;;;;4983130;28;20350;-57
2022/03/04 07:34:35;;;;;;;12.40;9.47;;;;;;;;;;4982937;28;20038;-56
2022/03/04 07:37:01;;;;;;;12.82;9.23;;;;;;;;;;4981286;28;20061;-55
2022/03/04 07:39:26;;;;;;;13.77;9.43;;;;;;;;;;4981054;28;20042;-54
2022/03/04 07:41:51;;;;;;;14.45;9.82;;;;;;;;;;4981089;28;20018;-54
2022/03/04 07:44:17;;;;;;;13.17;9.20;;;;;;;;;;4981110;28;20135;-56
2022/03/04 07:46:42;;;;;;;13.18;9.02;;;;;;;;;;4980813;28;20753;-54
2022/03/04 07:49:07;;;;;;;12.27;9.27;;;;;;;;;;4980847;28;20444;-55
2022/03/04 07:51:33;;;;;;;14.63;10.03;;;;;;;;;;4981504;28;20030;-53
2022/03/04 07:53:58;;;;;;;12.98;8.85;;;;;;;;;;4981020;28;20129;-53
2022/03/04 07:56:24;;;;;;;13.63;9.27;;;;;;;;;;4980575;28;20661;-56
2022/03/04 07:58:49;;;;;;;14.03;9.83;;;;;;;;;;4981143;28;20033;-53
2022/03/04 08:01:14;;;;;;;14.15;9.32;;;;;;;;;;4979256;28;20031;-55
2022/03/04 08:03:40;;;;;;;12.40;8.82;;;;;;;;;;4981104;28;20526;-55
2022/03/04 08:06:05;;;;;;;13.98;9.63;;;;;;;;;;4981083;28;20084;-55
2022/03/04 08:08:31;;;;;;;23.80;10.70;;;;;;;;;;4974411;28;20034;-55
2022/03/04 08:10:56;;;;;;;25.43;10.20;;;;;;;;;;4961327;28;20899;-56
2022/03/04 08:13:21;;;;;;;20.58;10.05;;;;;;;;;;4960641;28;20360;-55
2022/03/04 08:15:47;;;;;;;17.40;9.30;;;;;;;;;;4962823;28;20109;-55
2022/03/04 08:18:12;;;;;;;17.73;10.38;;;;;;;;;;4959577;28;20022;-59
2022/03/04 08:20:40;;;;;;;16.57;9.80;;;;;;;;;;4960673;28;20113;-56
2022/03/04 08:23:05;;;;;;;20.42;10.50;;;;;;;;;;4973807;28;20023;-55
2022/03/04 08:25:30;;;;;;;22.60;13.20;;;;;;;;;;4978988;28;20026;-58
2022/03/04 08:27:56;;;;;;;21.07;11.00;;;;;;;;;;4980474;28;20444;-58
2022/03/04 08:30:21;;;;;;;20.10;10.60;;;;;;;;;;4980813;28;20402;-56
2022/03/04 08:32:46;;;;;;;17.80;9.63;;;;;;;;;;4979129;28;20262;-55
2022/03/04 08:35:11;;;;;;;14.85;9.48;;;;;;;;;;5000826;28;20128;-55
2022/03/04 08:37:37;;;;;;;18.13;11.00;;;;;;;;;;4999561;28;20019;-55
2022/03/04 08:40:05;;;;;;;17.50;10.18;;;;;;;;;;4985066;28;20050;-59
2022/03/04 08:42:30;;;;;;;17.40;10.18;;;;;;;;;;4986575;28;20034;-57
2022/03/04 08:44:56;;;;;;;21.23;10.13;;;;;;;;;;4983063;28;20519;-56
2022/03/04 08:47:21;;;;;;;19.40;10.40;;;;;;;;;;4982638;28;20305;-56
2022/03/04 08:49:46;;;;;;;15.93;9.90;;;;;;;;;;4983983;28;20080;-56
2022/03/04 08:52:11;;;;;;;14.67;10.20;;;;;;;;;;4984183;28;20834;-57
2022/03/04 08:54:37;;;;;;;14.03;9.30;;;;;;;;;;4984905;28;20421;-57
2022/03/04 08:57:02;;;;;;;17.48;10.20;;;;;;;;;;4986247;28;20421;-53
2022/03/04 08:59:27;;;;;;;16.45;9.85;;;;;;;;;;4987595;28;20030;-56
2022/03/04 09:01:53;;;;;;;14.57;10.03;;;;;;;;;;4983535;28;20026;-57
2022/03/04 09:04:18;;;;;;;16.50;9.73;;;;;;;;;;4984006;28;20274;-56
2022/03/04 09:06:44;;;;;;;15.83;10.27;;;;;;;;;;4984041;28;20764;-56
2022/03/04 09:09:09;;;;;;;13.90;9.25;;;;;;;;;;4983898;28;20038;-55
2022/03/04 09:11:34;;;;;;;15.87;9.63;;;;;;;;;;4983779;28;20022;-57
2022/03/04 09:14:01;;;;;;;13.47;9.30;;;;;;;;;;4983768;28;20293;-56
2022/03/04 09:16:27;;;;;;;15.45;10.23;;;;;;;;;;4983388;28;20302;-56
2022/03/04 09:18:52;;;;;;;14.63;10.13;;;;;;;;;;4984276;28;20027;-55
2022/03/04 09:21:17;;;;;;;12.57;9.40;;;;;;;;;;4986687;28;20041;-55
2022/03/04 09:23:42;;;;;;;14.45;10.40;;;;;;;;;;4984924;28;20029;-56
2022/03/04 09:26:08;;;;;;;14.70;9.70;;;;;;;;;;4983182;28;20026;-56
2022/03/04 09:28:34;;;;;;;17.25;9.38;;;;;;;;;;4983219;28;20270;-56
2022/03/04 09:30:59;;;;;;;13.10;9.18;;;;;;;;;;4982815;28;20054;-56
2022/03/04 09:33:24;;;;;;;14.23;9.90;;;;;;;;;;4982934;28;20093;-57
2022/03/04 09:35:49;;;;;;;13.93;9.03;;;;;;;;;;4983231;28;20117;-56
2022/03/04 09:38:15;;;;;;;13.50;8.88;;;;;;;;;;4983214;28;20065;-56
2022/03/04 09:40:40;;;;;;;16.70;10.23;;;;;;;;;;4996254;28;20030;-56
2022/03/04 09:43:06;;;;;;;12.53;8.67;;;;;;;;;;5001701;28;20018;-56
2022/03/04 09:45:31;;;;;;;13.73;9.43;;;;;;;;;;4981794;28;20281;-56
2022/03/04 09:47:57;;;;;;;29.65;10.48;;;;;;;;;;4983248;28;20014;-56
2022/03/04 09:50:22;;;;;;;19.53;10.57;;;;;;;;;;4982757;28;20021;-56
2022/03/04 09:52:48;;;;;;;22.77;9.47;;;;;;;;;;4982334;28;20300;-56
2022/03/04 09:55:13;;;;;;;19.52;9.95;;;;;;;;;;4980976;28;20030;-55
2022/03/04 09:57:40;;;;;;;19.05;10.05;;;;;;;;;;4982442;28;20508;-55
2022/03/04 10:00:05;;;;;;;20.20;10.55;;;;;;;;;;4982249;28;20169;-55
2022/03/04 10:02:34;;;;;;;16.30;9.32;;;;;;;;;;4982620;28;20139;-55
2022/03/04 10:04:59;;;;;;;17.88;9.40;;;;;;;;;;4982392;28;20420;-55
2022/03/04 10:07:25;;;;;;;18.48;9.75;;;;;;;;;;4982812;28;20034;-55
2022/03/04 10:09:50;;;;;;;14.53;8.90;;;;;;;;;;4982103;28;20495;-54
2022/03/04 10:12:16;;;;;;;17.20;9.77;;;;;;;;;;4980247;28;20324;-55
2022/03/04 10:15:00;;;;;;;15.85;9.27;;;;;;;;;;4982013;28;20104;-55
2022/03/04 10:17:26;;;;;;;14.80;8.80;;;;;;;;;;4982167;28;20810;-55
2022/03/04 10:19:55;;;;;;;16.63;9.30;;;;;;;;;;4981864;28;20383;-55
2022/03/04 10:22:20;;;;;;;17.08;9.73;;;;;;;;;;4982149;28;20085;-54
2022/03/04 10:24:45;;;;;;;16.67;9.77;;;;;;;;;;4975096;28;20010;-55
2022/03/04 10:27:14;;;;;;;16.05;10.00;;;;;;;;;;4974906;28;20110;-54
2022/03/04 10:29:43;;;;;;;12.43;8.60;;;;;;;;;;4981808;28;20417;-55
2022/03/04 10:32:10;;;;;;;15.45;8.80;;;;;;;;;;4981648;28;20018;-55
2022/03/04 10:34:54;;;;;;;13.45;9.05;;;;;;;;;;4981247;28;20042;-55
2022/03/04 10:37:19;;;;;;;12.02;8.45;;;;;;;;;;4981574;28;20030;-55
2022/03/04 10:40:00;;;;;;;14.17;8.63;;;;;;;;;;4980442;28;20407;-55
2022/03/04 10:42:41;;;;;;;14.10;9.27;;;;;;;;;;4981874;28;20053;-54
2022/03/04 10:45:07;;;;;;;13.27;8.60;;;;;;;;;;4980396;28;20034;-55
2022/03/04 10:47:42;;;;;;;13.25;8.88;;;;;;;;;;4982206;28;20403;-53
2022/03/04 10:50:08;;;;;;;14.63;8.43;;;;;;;;;;4981745;28;20448;-54
2022/03/04 10:52:33;;;;;;;12.32;8.73;;;;;;;;;;4980658;28;20030;-55
2022/03/04 10:54:58;;;;;;;12.45;8.68;;;;;;;;;;4981576;28;20035;-55
2022/03/04 10:57:24;;;;;;;12.00;8.30;;;;;;;;;;4981233;28;20026;-54
2022/03/04 10:59:55;;;;;;;11.57;8.33;;;;;;;;;;4981091;28;20027;-54
2022/03/04 11:02:37;;;;;;;14.70;8.38;;;;;;;;;;4980607;28;20281;-54
2022/03/04 11:05:03;;;;;;;13.02;8.98;;;;;;;;;;4980563;28;20121;-55
2022/03/04 11:07:28;;;;;;;13.80;8.88;;;;;;;;;;4980344;28;20069;-56
2022/03/04 11:09:53;;;;;;;13.67;8.53;;;;;;;;;;4981503;28;20022;-53
2022/03/04 11:12:20;;;;;;;11.60;8.10;;;;;;;;;;4981102;28;20030;-57
2022/03/04 11:14:45;;;;;;;13.75;8.43;;;;;;;;;;4981077;28;20038;-54
2022/03/04 11:17:10;;;;;;;12.80;8.27;;;;;;;;;;4981697;28;20053;-54
2022/03/04 11:19:36;;;;;;;10.27;7.40;;;;;;;;;;4980228;28;20080;-54
2022/03/04 11:22:01;;;;;;;13.80;8.90;;;;;;;;;;4981495;28;20181;-55
2022/03/04 11:24:29;;;;;;;12.77;8.50;;;;;;;;;;4980790;28;20072;-56
2022/03/04 11:26:55;;;;;;;12.88;8.55;;;;;;;;;;4963749;28;20034;-55
2022/03/04 11:29:36;;;;;;;11.35;8.50;;;;;;;;;;4981530;28;20030;-55
2022/03/04 11:32:03;;;;;;;11.52;8.05;;;;;;;;;;4981070;28;20022;-55
2022/03/04 11:34:34;;;;;;;11.93;7.70;;;;;;;;;;4980418;28;20026;-55
2022/03/04 11:37:00;;;;;;;12.68;8.20;;;;;;;;;;4980986;28;20424;-55
2022/03/04 11:39:26;;;;;;;11.98;8.25;;;;;;;;;;4980791;28;20024;-56
2022/03/04 11:41:53;;;;;;;13.13;8.43;;;;;;;;;;4980699;28;20511;-55
2022/03/04 11:44:22;;;;;;;11.50;8.13;;;;;;;;;;4979965;28;20500;-55
2022/03/04 11:46:47;;;;;;;12.32;8.48;;;;;;;;;;4980530;28;20043;-55
2022/03/04 11:49:29;;;;;;;10.27;7.73;;;;;;;;;;4981433;28;20104;-56
2022/03/04 11:52:09;;;;;;;10.95;8.02;;;;;;;;;;4979832;28;20030;-56
2022/03/04 11:54:35;;;;;;;10.77;7.00;;;;;;;;;;4980645;28;20365;-57
2022/03/04 11:57:00;;;;;;;12.10;7.80;;;;;;;;;;4979509;28;20057;-56
2022/03/04 11:59:26;;;;;;;12.65;7.82;;;;;;;;;;4979498;28;20018;-56
2022/03/04 12:01:51;;;;;;;12.32;8.00;;;;;;;;;;4981254;28;20038;-58
2022/03/04 12:04:17;;;;;;;10.20;7.70;;;;;;;;;;4980333;28;20049;-57
2022/03/04 12:06:42;;;;;;;10.73;8.13;;;;;;;;;;4980336;28;20835;-56
2022/03/04 12:09:26;;;;;;;11.48;7.97;;;;;;;;;;4980495;28;20472;-57
2022/03/04 12:12:11;;;;;;;11.18;7.45;;;;;;;;;;4979407;28;20057;-55
2022/03/04 12:14:39;;;;;;;11.02;8.40;;;;;;;;;;4981020;28;20497;-54
2022/03/04 12:17:05;;;;;;;10.65;7.80;;;;;;;;;;4971666;28;20370;-56
2022/03/04 12:19:30;;;;;;;10.73;8.50;;;;;;;;;;4986876;28;20013;-55
2022/03/04 12:21:56;;;;;;;11.95;7.93;;;;;;;;;;5004070;28;20774;-57
2022/03/04 12:24:30;;;;;;;12.77;8.02;;;;;;;;;;4993193;28;20575;-56
2022/03/04 12:26:56;;;;;;;10.50;7.43;;;;;;;;;;4979213;28;20125;-57
2022/03/04 12:29:24;;;;;;;11.80;7.70;;;;;;;;;;4984389;28;20160;-56
2022/03/04 12:31:49;;;;;;;11.02;8.05;;;;;;;;;;4980789;28;20349;-55
2022/03/04 12:34:16;;;;;;;11.47;7.73;;;;;;;;;;4976676;28;20595;-56
2022/03/04 12:36:42;;;;;;;10.80;7.60;;;;;;;;;;4991316;28;20025;-56
2022/03/04 12:39:07;;;;;;;10.77;7.45;;;;;;;;;;4982376;28;20030;-57
2022/03/04 12:41:33;;;;;;;10.00;7.47;;;;;;;;;;4978131;28;20054;-57
2022/03/04 12:44:03;;;;;;;11.27;8.25;;;;;;;;;;4970151;28;20499;-56
2022/03/04 12:46:28;;;;;;;;;;;;;;;;;;4974132;28;20463;-56
2022/03/04 12:48:53;;;;;;;9.23;7.07;;;;;;;;;;4984018;28;20008;-56
2022/03/04 12:51:19;;;;;;;11.00;7.80;;;;;;;;;;4983843;28;20023;-56
2022/03/04 12:53:44;;;;;;;10.15;7.72;;;;;;;;;;4984107;28;20034;-55
2022/03/04 12:56:12;;;;;;;11.00;7.35;;;;;;;;;;4983351;28;20509;-56
2022/03/04 12:58:37;;;;;;;10.55;7.32;;;;;;;;;;4983302;28;20030;-59
2022/03/04 13:01:03;;;;;;;12.30;8.00;;;;;;;;;;4983984;28;20037;-56
2022/03/04 13:03:28;;;;;;;9.50;6.85;;;;;;;;;;4983603;28;20034;-58
2022/03/04 13:05:54;;;;;;;11.18;7.63;;;;;;;;;;4983381;28;20441;-58
2022/03/04 13:08:19;;;;;;;12.73;7.90;;;;;;;;;;4983461;28;20316;-55
2022/03/04 13:10:45;;;;;;;10.80;7.20;;;;;;;;;;4983409;28;20030;-57
2022/03/04 13:13:10;;;;;;;10.13;7.20;;;;;;;;;;4983186;28;20031;-57
2022/03/04 13:15:35;;;;;;;10.30;7.17;;;;;;;;;;4982782;28;20135;-56
2022/03/04 13:18:00;;;;;;;11.00;7.38;;;;;;;;;;4969933;28;20226;-55
2022/03/04 13:20:26;;;;;;;11.33;7.43;;;;;;;;;;4964696;28;20117;-56
2022/03/04 13:23:01;;;;;;;11.90;7.75;;;;;;;;;;4977924;28;20054;-57
2022/03/04 13:25:29;;;;;;;11.55;7.38;;;;;;;;;;4982138;28;20035;-56
2022/03/04 13:27:54;;;;;;;11.80;7.57;;;;;;;;;;4983528;28;20030;-56
2022/03/04 13:30:20;;;;;;;12.02;7.55;;;;;;;;;;4983310;28;20516;-53
2022/03/04 13:32:46;;;;;;;11.57;7.40;;;;;;;;;;4983208;28;20538;-57
2022/03/04 13:35:11;;;;;;;11.48;6.78;;;;;;;;;;4983403;28;20057;-56
2022/03/04 13:37:40;;;;;;;13.55;7.22;;;;;;;;;;4984800;28;20030;-56
2022/03/04 13:40:26;;;;;;;11.02;7.13;;;;;;;;;;4976244;28;20910;-55
2022/03/04 13:42:52;;;;;;;10.63;6.82;;;;;;;;;;4968837;28;20097;-58
2022/03/04 13:45:48;;;;;;;11.70;7.22;;;;;;;;;;4967122;28;20046;-58
2022/03/04 13:48:14;;;;;;;10.88;7.00;;;;;;;;;;4963257;28;20471;-55
2022/03/04 13:50:40;;;;;;;9.68;6.10;;;;;;;;;;4967143;28;20026;-53
2022/03/04 13:53:12;;;;;;;9.25;5.35;;;;;;;;;;4964855;28;20122;-56
2022/03/04 13:55:43;;;;;;;9.85;5.07;;;;;;;;;;4970604;28;20109;-57
2022/03/04 13:58:12;;;;;;;9.88;6.28;;;;;;;;;;4983047;28;20018;-57
2022/03/04 14:00:38;;;;;;;8.20;5.60;;;;;;;;;;4963438;28;20023;-57
2022/03/04 14:03:07;;;;;;;8.43;5.60;;;;;;;;;;4976891;28;20285;-58
2022/03/04 14:05:33;;;;;;;7.47;4.97;;;;;;;;;;4981200;28;20426;-59
2022/03/04 14:08:11;;;;;;;7.22;4.80;;;;;;;;;;4979633;28;20089;-55
2022/03/04 14:10:37;;;;;;;6.47;4.85;;;;;;;;;;4981870;28;20032;-55
2022/03/04 14:13:03;;;;;;;7.82;4.82;;;;;;;;;;4981744;28;20030;-54
2022/03/04 14:15:29;;;;;;;7.90;5.25;;;;;;;;;;4973591;28;20621;-57
2022/03/04 14:17:58;;;;;;;9.68;5.35;;;;;;;;;;4981707;28;20425;-55
2022/03/04 14:20:23;;;;;;;7.85;5.40;;;;;;;;;;4981795;28;20026;-56
2022/03/04 14:22:49;;;;;;;8.38;5.03;;;;;;;;;;4982427;28;20041;-55
2022/03/04 14:25:15;;;;;;;10.60;4.93;;;;;;;;;;4980924;28;20104;-56
2022/03/04 14:27:42;;;;;;;7.82;4.88;;;;;;;;;;4981232;28;20499;-56